首页
METAR-TAF:

METAR-TAF

机场 :

Tofino, 不列颠哥伦比亚, 加拿大

纬度: 49-05N, 经度: 125-46W, 海拔: 24米

当前天气观测

该预报发布于30分钟前的13:00 UTC
静风
温度 9°C
湿度 93%
气压 1014 hPa
能見度: 24.1公里
天空无云
碎片雾

METAR: CYAZ 221300Z 00000KT 15SM BCFG SKC 09/08 A2995 RMK SLP143

时间: 06:30 (13:30 UTC)

预报

该预报发布于19小时和52分钟前的17:38 UTC
预报有效从21日的 18点(UTC)到 22日的 01点(UTC)
风速3节,风向多变
能見度: 10公里
多云层高于8000英尺
成为
从 21日的 18点(UTC)到 21日的 20点(UTC)
风速8节,风向西转西北
从 21日的 2000点(UTC)
风速8节,风向西转西北
能見度: 10公里
散云层高于8000英尺

TAF: CYAZ 211738Z 2118/2201 VRB03KT P6SM BKN080 BECMG 2118/2120 29008KT FM212000 29008KT P6SM SCT080 RMK NXT FCST WILL BE ISSUED AT 221445Z

超过4000个机场的气象观测和天气预报(METAR&TAF报告)。

可查询的气象台以黄色和红色小点在地图上表示。

将鼠标移到小点上方,可查看气象台名称。

然后点击查看天气观测和预报。

如需切换地图:点击带黑十字的绿色按钮放大地图;点击带横线的绿色按钮缩小地图;或者点击绿色箭头查看邻近地区的地图。


METAR-TAF: